Tropical Cyclones
[Index]
Main Index Home Page Stock Weather Photos Extreme Storms Discussion Storm News and Storm Chasing Reports Tropical Cyclones / Hurricanes / Typhoons Weather Data and Links Wild Fires / Bushfires Weather Observation Techniques Weather Picture Catalogue Tornado Pictures and Reports Stock Video Footage and DVDs for sale
Season 1956-1957 Tropical Cyclone 195715 Track Map
Season 1956-1957 Summaries: [BoM-AU] [JTWC-AU] [JTWC-SIO] [JTWC-SPAC] [JTWC-SH]
<<- Previous TC | JTWC 1956-1957 Season | Next TC ->>

click for intensity scale information  Lat/long Grid: Show Hide

 Date Labels: Show Hide

Joint Typhoon Warning Centre Cyclone Data

Name: 195715
Number: 292 / 5715

17 Jan 1957 06:00 UTC to 26 Jan 1957 06:00 UTC

    date/time    lat    long     hPa   cat  kts
1957-01-17 06    8.8    64.0                              
1957-01-17 12    9.4    63.4                              
1957-01-17 18   10.0    63.2                              
1957-01-18 00   10.8    63.3                              
1957-01-18 06   11.4    63.5                              
1957-01-18 12   11.7    63.6                              
1957-01-18 18   11.9    63.8                              
1957-01-19 00   12.1    64.0                              
1957-01-19 06   12.3    64.0                              
1957-01-19 12   12.8    63.7                              
1957-01-19 18   13.3    63.1                              
1957-01-20 00   13.7    62.5                              
1957-01-20 06   14.1    62.0                              
1957-01-20 12   14.4    61.6                              
1957-01-20 18   14.6    61.3                              
1957-01-21 00   15.0    61.0                              
1957-01-21 06   15.5    60.8                              
1957-01-21 12   16.2    60.8                              
1957-01-21 18   16.9    61.0                              
1957-01-22 00   17.4    61.1                              
1957-01-22 06   18.0    61.5                              
1957-01-22 12   18.7    62.1                              
1957-01-22 18   19.5    62.7                              
1957-01-23 00   20.2    63.3                              
1957-01-23 06   20.9    63.9                              
1957-01-23 12   21.5    64.5                              
1957-01-23 18   22.1    65.0                              
1957-01-24 00   22.7    65.5                              
1957-01-24 06   23.3    66.0                              
1957-01-24 12   23.9    66.3                              
1957-01-24 18   24.6    66.6                              
1957-01-25 00   25.2    66.9                              
1957-01-25 06   26.0    67.1                              
1957-01-25 12   27.2    67.0                              
1957-01-25 18   28.5    66.6                              
1957-01-26 00   29.7    65.7                              
1957-01-26 06   31.0    64.4                              
Winds are 1-min average.

Tropical cyclone tracks developed by Michael Bath using data from the Joint Typhoon Warning Centre Best Tracks and Google Maps.


[Australian Severe Weather index] [Copyright Notice] [Email Contacts] [Search This Site] [Privacy Policy]
Document: tropical_cyclone_195715.htm Updated: 18 September 2016